• Join FlightAware (Why Join?)
  • Login
  • US Flag 
10:33AM EDT


 

Airport Tracker/Info


-or-


 

Live Flight TrackerFlight Track Log ✈ CTL22 ✈ 09-Jul-2013 ✈ KBKL - KGRR

Flight Track Log - Related Links

Times and Time Zones

All times are in EDT time to prevent confusion due to time zone crossing. See the CTL22 flight status page for this flight to view local times or setup timezone preferences in your user account.

Time Position Orientation Groundspeed Altitude Reporting Facility
EDT Latitude Longitude Course Direction KTS MPH feet Rate Location/Type
09:53PM 42.1494 -83.0842 303° West 144 166 6,100  Level Cleveland Center
09:54PM 42.1714 -83.1300 303° West 145 167 6,100  Level Cleveland Center
09:55PM 42.1847 -83.1808 290° West 145 167 6,100  Level Cleveland Center
09:56PM 42.2025 -83.2264 298° West 145 167 6,100  Level Cleveland Center
09:57PM 42.2161 -83.2747 291° West 144 166 6,100  Level Cleveland Center
09:58PM 42.2375 -83.3372 295° West 144 166 6,100  Level Cleveland Center
09:59PM 42.2531 -83.3856 294° West 145 167 6,200  Climbing Cleveland Center
10:00PM 42.2667 -83.4283 293° West 145 167 6,100 -60 Descending Cleveland Center
10:01PM 42.2819 -83.4767 293° West 146 168 6,100  Level Cleveland Center
10:02PM 42.2972 -83.5308 291° West 144 166 6,100  Level Cleveland Center
10:03PM 42.3147 -83.5850 294° West 143 165 6,100  Level Cleveland Center
10:04PM 42.3281 -83.6361 289° West 143 165 6,100  Level Cleveland Center
10:05PM 42.3453 -83.6847 296° West 144 166 6,100  Level Cleveland Center
10:08PM 41.5644 -81.8071 297° West  Level Estimated
10:09PM 42.4056 -83.8572 297° West 140 161 6,100  Level Chicago Center
10:10PM 42.4200 -83.9053 292° West 141 162 6,100  Level Chicago Center
10:11PM 42.4361 -83.9544 294° West 142 163 6,200  Climbing Chicago Center
10:12PM 42.4536 -84.0008 297° West 139 160 6,100 -60 Descending Chicago Center
10:13PM 42.4744 -84.0578 296° West 141 162 6,100 -60 Level Chicago Center
10:14PM 42.4881 -84.1064 291° West 139 160 6,000 -60 Descending Chicago Center
10:15PM 42.5036 -84.1531 294° West 137 158 6,000  Level Chicago Center
10:16PM 42.5186 -84.2006 293° West 138 159 6,100  Climbing Chicago Center
10:17PM 42.5319 -84.2494 290° West 138 159 6,100 -60 Level Chicago Center
10:18PM 42.5453 -84.2986 290° West 140 161 6,000 -60 Descending Chicago Center
10:19PM 42.5600 -84.3472 292° West 141 162 6,000  Level Chicago Center
10:20PM 42.5764 -84.3956 295° West 140 161 6,000  Level Chicago Center
10:21PM 42.5886 -84.4442 289° West 139 160 6,100  Climbing Chicago Center
10:22PM 42.6056 -84.5031 291° West 140 161 6,000  Descending Chicago Center
10:23PM 42.6222 -84.5514 295° West 142 163 6,100  Climbing Chicago Center
10:24PM 42.6381 -84.5997 294° West 141 162 6,100 -60 Level Chicago Center
10:25PM 42.6519 -84.6497 291° West 141 162 6,000  Descending Chicago Center
10:26PM 42.6667 -84.7000 292° West 143 165 6,100  Climbing Chicago Center
10:27PM 42.6792 -84.7503 289° West 141 162 6,100 -60 Level Chicago Center
10:28PM 42.6931 -84.8006 291° West 142 163 6,000 -480 Descending Chicago Center
10:29PM 42.7100 -84.8550 293° West 152 175 5,200 -840 Descending Chicago Center
10:30PM 42.7289 -84.9247 290° West 162 186 4,400 -600 Descending Chicago Center
10:31PM 42.7478 -84.9786 296° West 161 185 4,000 -240 Descending Chicago Center
10:32PM 42.7611 -85.0306 289° West 151 174 4,000  Level Chicago Center
10:33PM 42.7733 -85.0794 289° West 140 161 4,100 -120 Climbing Chicago Center
10:34PM 42.7842 -85.1292 287° West 138 159 3,800 -300 Descending Chicago Center
10:35PM 42.7997 -85.1817 292° West 146 168 3,500 -420 Descending Chicago Center
10:36PM 42.8103 -85.2369 285° West 150 173 3,000 -540 Descending Chicago Center
10:37PM 42.8289 -85.2925 295° West 158 182 2,400 -300 Descending Chicago Center
10:38PM 42.8464 -85.3481 293° West 160 184 2,400 -300 Level Chicago Center
10:39PM 42.8656 -85.4156 291° West 159 183 1,900 -540 Descending Chicago Center
10:40PM 42.8772 -85.4672 287° West 153 176 1,400 -480 Descending Chicago Center
10:41PM 42.8811 -85.5064 278° West 125 144 1,000 -420 Descending Chicago Center
10:43PM 42.8667 -85.5167 270° West  Level FlightAware Approximate
10:50PM 42.8808 -85.5228 270° West  Level Estimated